Ludden, North Dakota
Current Conditions -  °F | °C
As of 2:15 AM on Thursday 27 Nov 2014 (Local Time) from KGWR Reporting Station
Clear Clear  
Wind Chill: -6°   Ceiling: Unl
Heat Index: -6°   Visibility: 10mi
Dew Point: -13°   Wind: 0mph
Humidity: 71%   Direction: NA
Pressure: 30.52"   Gusts: NA
Location:  46.1099°N, 98.1335°W
Report Text: KGWR 270815Z AUTO 00000KT 10SM CLR M21/M25 A3052 RMK A01 P000
Loading
Personal Weather Stations






























Interactive Weather Map New forecast layout! Learn more

10-Day Weather Forecast

Advertisements
Track Severe Weather on mobile